Timeline UpdatesTrip UpdatesNews PostsPvt PostsTravel TipsAdmin PostsConv PostsFollowed PostsChat RequestsBlog PostsPNR Posts

Disclaimer
Search
 
 
Sat Aug 2, 2014 05:54:16 ISTHomeTrainsΣChainsAtlasPNRForumGalleryNewsFAQTripsMembersLoginFeedback
No Recent News for this Train
Other Trains in the News **new
Latest...
.
Sun Mar 09, 2014 (12:08PM)
⇐ Return Journey: Train# 12722

12721/Dakshin SF Express

Jan 01 2014 (10:18PM)
Change Departure Station:
Change Arrival Station:
Post a Train Travel TipPost a Train Travel Tip **new
Post a Comment/Question/Picture/VideoPost a Comment/Question/Picture/Video
Pantry/Catering
✓ Pantry Car Avbl
✓ Catering Avbl
RSA - Rake Sharing
Rake/Coach Composition
From HYB to KZJ, 12721 Dakshin Exp; LOCO(LGD-WAP7)-SLRD-A2-B2-PC-S8-S9-S10-S11-S12-S13-S14-GS-GS-GS-GS-SLR; From KZJ to NZM, 12721 Dakshin Exp; LOCO(LGD-WAP7)-SLR-S4-S5-S6-B1-A1-SLRD-A2-B2-PC-S8-S9-S10-S11-S12-S13-S14-GS-GS-GS-GS-SLR
Loco
Loco In-Charge :- LGD WAP-7 / LGD WAP-4
News    PNR    Forum    Time-Table    Availability    Fare Chart    Map    Arr/Dep History    Trips    Gallery    ΣChains    X/O    Timeline    
Travel Time: 0h 20m    0 halts    Distance: 9 km    Avg Speed: 27 km/hr
Type: SuperFast
Zone: SCR/South Central
Departs @ 22:30 (Avg 2m late)
Platform# 4
SMTWTFS
Hyderabad Deccan Nampally/HYB 
Arrives @ 22:50 (Avg 12m late)
Platform# 1
SMTWTFS
Secunderabad Junction/SC 

0 halts. 6 intermediate Stations between Hyderabad Deccan Nampally and Secunderabad Junction

Show ALL intermediate Stations  Show Old Time-Table

#CodeStation NameX/OArrivesAvgDepartsAvgHaltPFDay#KmSpeedElevZoneAddress
1HYB»Hyderabad Deccan Nampally (6)»  -22:30+2410.028510mSCRHyderabad, Telangana
2SC•Secunderabad Junction (10)•XO  22:50+1222:55+165m119.279539mSCRSecunderabad 500003, Telangana
3BGBhongir (3)  23:30+4023:40+3110m1155.697455mSCRNalgonda Dist., Telangana
4ZNJangaon (2)  00:03+3700:05+372m2292.944380mSCRWarangal Dist., Telangana
5KZJKazipet Junction (3)X  01:10+1401:30+3020m12140.993292mSCRWarangal Dist., Telangana
6JMKTJamikunta (2)X  01:53+4801:55+482m12176.495236mSCRKarimnagar Dist., Telangana
7PDPLPeddapalli Junction (2)O  02:20+5002:22+502m12215.950228mSCRKarimnagar Dist., Telangana
8RDMRamagundam (3)O  02:43+4502:45+442m12233.563170mSCRKarimnagar Dist. Ph : 08728 - 255237, Telangana
9MCIManchiryal (3)X  02:58+4603:00+462m12247.266159mSCRAdilabad Dist., Telangana
10BPABellampalli (3)X  03:18+4803:20+472m12267.161205mSCRTel:.08735 223298, Telangana
11SKZRSirpur Kaghaznagar (3)X  03:58+1404:00+132m12305.552181mSCRAdilabad Dist., Telangana
12BPQBalharshah Junction (5)X  05:20+2105:30+2310m--2375.343188mCRBallarpur. Ph : 07172 - 240341, Maharashtra
13CDChandrapur Maharashtra (3)  05:49+2505:50+261m--2389.063194mCRChandrapur 442401, Maharashtra
14BUXBhandak (5)  06:13+2506:14+261m--2413.363207mCRChandrapur, Maharashtra
15WRRWarora (2)X  06:35+2706:36+281m--2435.478214mCRWarora, Maharashtra
16HGTHinganghat (3)  07:06+3307:07+331m--2474.544228mCRHinganghat, Maharashtra
17SEGMSewagram Junction (5)  07:52+2007:53+221m32507.676279mCRWardha, Maharashtra
18SNISindi (2)  08:16+2408:17+251m--2536.977258mCRWardha, Maharashtra
19AJNIAjni (3)  08:51+2208:52+231m12580.88310mCRNagpur 440003, Maharashtra
20NGPNagpur Junction (8)X  09:15+1709:25+1910m12583.870314mCRNagpur 440001, Maharashtra
21KATLKatol (2)  10:17+2210:18+231m--2644.760415mCRKatol, Maharashtra
22NRKRNarkher Junction (3)X  10:43+2110:44+221m--2669.861411mCRNarkher, Maharashtra
23PARPandhurna (2)  11:02+2111:03+231m--2688.261481mCRDistt: Chhindwara, Madhya Pradesh
24MTYMultai (2)X  11:43+2711:45+282m--2729.065762mCRMultai, Madhya Pradesh
25AMLAAmla Junction (5)O  12:06+2512:08+262m--2751.872733mCRAmla Distt. Betul, Madhya Pradesh
26BZUBetul (3)X  12:27+2812:29+292m--2774.753644mCRBetul, Madhya Pradesh
27GDYAGhoradongri (3)X  13:10+2813:12+272m12810.645410mCRBetul, Madhya Pradesh
28ETItarsi Junction (7)  14:45+1114:55+1510m12881.057329mWCRItarsi 461111, Madhya Pradesh
29HBDHoshangabad (2)  15:14+1915:15+211m--2899.163308mWCRHoshangabad, Madhya Pradesh
30HBJBhopal HabibGanj (5)X  16:19+3516:20+361m32966.415496mWCRHabibGanj, Madhya Pradesh
31BPLBhopal Junction (6)X  16:45+2816:50+305m22972.797497mWCRBhopal, Madhya Pradesh
32BHSVidisha (3)  17:23+4217:24+431m121026.279432mWCRVidisha, Madhya Pradesh
33BAQGanj Basoda (4)X  17:54+4117:55+421m121065.574416mWCRVidisha, Madhya Pradesh
34MABAMandi Bamora (3)X  18:18+4218:19+431m121094.025413mWCRState Highway 14, Madhya Pradesh
35BINABina Junction (4)X  19:00+2219:05+225m321111.371414mWCRJn Pt - KATNI/GUNA/ BPL/JHS, Madhya Pradesh
36LARLalitpur (3)X  19:58+2619:59+271m321174.288373mNCRLalitpur, Uttar Pradesh
37BABBabina (3)X  20:43+3420:44+351m221239.045285mNCRBabina, Uttar Pradesh
38JHSJhansi Junction (7)X  21:18+3221:28+3410m421264.565259mNCRJhansi, Uttar Pradesh
39DAADatia (2)X  21:51+3721:52+391m--21289.579264mNCRDatia, Madhya Pradesh
40GWLGwalior Junction (4)  22:47+4622:52+465m221362.289214mNCRGwalior, Madhya Pradesh
41MRAMorena (3)  23:18+4223:19+421m221400.855176mNCRMorena, Madhya Pradesh
42AGCAgra Cantt. (6)XO  00:45+3700:50+405m231480.275174mNCRAgra, Uttar Pradesh
43MTJMathura Junction (10)X  01:33+5301:38+535m231533.962179mNCRMathura, Uttar Pradesh
44BVHBallabgarh (5)O  03:19+2703:20+281m331639.048203mNRFaridabad, Haryana
45FDBFaridabad (4)  03:30+2903:33+283m231647.146206mNRold Faridabad, Haryana
46NZMDelhi Hazrat Nizamuddin (7)  04:00+23-631667.8-209mNRNizamuddin East/Sarai KaleKhan Bus Terminal, Delhi NCT
Scroll to Top
Scroll to Bottom